Time;durP1;ratioP1;P1;durP2;ratioP2;P2;SDS_P1;SDS_P2;PMS_P1;PMS_P2;Temp;Humidity;BMP_temperature;BMP_pressure;BME280_temperature;BME280_humidity;BME280_pressure;Samples;Min_cycle;Max_cycle;Signal;HPM_P1;HPM_P2
2023/09/15 00:06:54;;;;;;;9.50;4.47;;;;;;;12.72;69.02;101871.91;15745809;28;20036;-48
2023/09/15 00:14:29;;;;;;;5.73;3.93;;;;;;;12.60;69.68;101867.28;15731978;28;20040;-49
2023/09/15 00:22:02;;;;;;;5.68;4.35;;;;;;;12.63;69.29;101870.41;15733719;28;20432;-51
2023/09/15 00:29:40;;;;;;;7.03;4.20;;;;;;;12.64;69.16;101872.09;15725943;28;20040;-49
2023/09/15 00:37:13;;;;;;;8.15;4.40;;;;;;;12.52;69.75;101882.53;15691908;28;20040;-48
2023/09/15 00:44:48;;;;;;;7.10;4.15;;;;;;;12.49;69.11;101884.78;15710179;28;20127;-47
2023/09/15 00:52:22;;;;;;;8.05;4.72;;;;;;;12.28;69.73;101879.44;15726132;28;20047;-47
2023/09/15 00:59:56;;;;;;;6.45;4.30;;;;;;;12.40;68.94;101880.56;15725574;28;20469;-48
2023/09/15 01:07:30;;;;;;;6.63;4.30;;;;;;;12.21;70.02;101873.97;15724320;28;20528;-48
2023/09/15 01:15:07;;;;;;;8.98;4.25;;;;;;;12.11;69.98;101868.94;15722671;28;20131;-47
2023/09/15 01:23:16;;;;;;;6.32;4.15;;;;;;;12.25;69.23;101867.19;15711604;28;20037;-47
2023/09/15 01:30:52;;;;;;;7.53;4.22;;;;;;;12.19;69.84;101870.66;15702246;28;20049;-47
2023/09/15 01:38:25;;;;;;;8.18;4.55;;;;;;;12.09;69.72;101865.59;15722276;28;20074;-48
2023/09/15 01:45:59;;;;;;;7.10;4.80;;;;;;;12.13;69.68;101871.44;15705747;28;20565;-47
2023/09/15 01:53:35;;;;;;;6.57;4.43;;;;;;;12.09;69.59;101865.59;15720936;28;20052;-49
2023/09/15 02:01:10;;;;;;;8.63;5.53;;;;;;;12.03;69.73;101861.00;15704380;28;20044;-50
2023/09/15 02:08:43;;;;;;;7.57;4.75;;;;;;;12.04;69.71;101867.22;15723102;28;20083;-50
2023/09/15 02:16:20;;;;;;;6.90;4.35;;;;;;;11.91;69.92;101871.44;15722005;28;20041;-47
2023/09/15 02:23:53;;;;;;;8.15;5.20;;;;;;;11.73;71.42;101879.06;15700098;28;20048;-47
2023/09/15 02:31:30;;;;;;;7.60;4.55;;;;;;;11.86;69.88;101868.47;15739205;28;20050;-48
2023/09/15 02:39:03;;;;;;;7.95;5.38;;;;;;;11.83;70.27;101873.41;15720970;28;20554;-47
2023/09/15 02:46:38;;;;;;;9.55;5.22;;;;;;;11.83;69.76;101859.94;15720485;28;20033;-53
2023/09/15 02:54:12;;;;;;;7.47;4.72;;;;;;;11.75;70.20;101866.28;15688340;28;20037;-54
2023/09/15 03:01:52;;;;;;;7.57;5.07;;;;;;;11.71;70.36;101854.22;15720523;28;20037;-50
2023/09/15 03:09:29;;;;;;;7.63;4.50;;;;;;;11.67;70.51;101848.38;15691541;28;20464;-51
2023/09/15 03:17:05;;;;;;;9.27;4.70;;;;;;;11.50;70.58;101846.94;15700326;28;20037;-52
2023/09/15 03:24:39;;;;;;;8.80;4.55;;;;;;;11.61;69.76;101856.38;15657884;28;20120;-52
2023/09/15 03:32:14;;;;;;;8.13;4.70;;;;;;;11.36;71.08;101853.19;15658099;28;20059;-50
2023/09/15 03:39:50;;;;;;;8.70;5.07;;;;;;;11.54;70.45;101860.84;15668109;28;20052;-51
2023/09/15 03:47:25;;;;;;;7.30;4.38;;;;;;;11.34;71.12;101855.25;15667207;28;20424;-49
2023/09/15 03:55:10;;;;;;;;;;;;;;;;;;;;;
2023/09/15 04:02:45;;;;;;;10.05;5.20;;;;;;;11.41;70.27;101853.44;15728161;28;20446;-48
2023/09/15 04:10:19;;;;;;;8.98;4.88;;;;;;;11.39;70.42;101856.34;15727206;28;20052;-50
2023/09/15 04:17:55;;;;;;;7.32;4.70;;;;;;;11.38;70.55;101852.00;15712765;28;20090;-49
2023/09/15 04:25:29;;;;;;;6.72;4.80;;;;;;;11.43;70.31;101862.19;15728087;28;20054;-54
2023/09/15 04:33:03;;;;;;;7.47;5.10;;;;;;;11.33;70.74;101862.47;15726959;28;20501;-48
2023/09/15 04:40:37;;;;;;;7.95;5.15;;;;;;;11.20;71.39;101870.38;15728925;28;20055;-48
2023/09/15 04:48:12;;;;;;;9.43;4.97;;;;;;;11.29;70.58;101863.88;15724470;28;20397;-47
2023/09/15 04:55:45;;;;;;;8.27;5.00;;;;;;;11.29;71.23;101876.47;15697984;28;20041;-50
2023/09/15 05:03:21;;;;;;;9.05;5.20;;;;;;;11.41;70.97;101867.72;15697901;28;20102;-52
2023/09/15 05:10:58;;;;;;;7.80;5.57;;;;;;;11.56;70.89;101870.38;15724740;28;20061;-47
2023/09/15 05:18:36;;;;;;;7.72;5.78;;;;;;;11.79;70.69;101878.28;15708784;28;20098;-49
2023/09/15 05:26:09;;;;;;;9.45;5.95;;;;;;;11.77;71.03;101863.38;15721833;28;20036;-50
2023/09/15 05:33:43;;;;;;;;;;;;;;;12.18;71.12;101871.69;15706536;28;20044;-47
2023/09/15 05:41:18;;;;;;;12.00;6.68;;;;;;;12.64;70.56;101872.09;15661296;28;19921;-50
2023/09/15 05:49:02;;;;;;;12.02;7.53;;;;;;;12.82;71.44;101878.81;15678446;28;20485;-51
2023/09/15 05:56:36;;;;;;;11.60;7.53;;;;;;;12.59;74.13;101881.75;15679835;28;20064;-49
2023/09/15 06:04:13;;;;;;;12.57;7.78;;;;;;;12.82;74.31;101879.66;15746902;28;20509;-49
2023/09/15 06:11:51;;;;;;;13.73;7.53;;;;;;;13.15;73.98;101885.25;15734593;28;20477;-50
2023/09/15 06:19:26;;;;;;;15.27;7.38;;;;;;;13.68;72.93;101882.00;15723297;28;20072;-48
2023/09/15 06:26:59;;;;;;;10.82;6.68;;;;;;;14.05;71.68;101880.63;15739005;28;20424;-48
2023/09/15 06:34:33;;;;;;;9.30;6.85;;;;;;;14.68;70.43;101886.47;15738708;28;20334;-48
2023/09/15 06:42:10;;;;;;;11.98;6.13;;;;;;;15.09;68.44;101893.47;15738641;28;20060;-49
2023/09/15 06:49:48;;;;;;;8.35;5.78;;;;;;;15.18;67.52;101894.09;15709950;28;20493;-48
2023/09/15 06:57:23;;;;;;;8.73;5.78;;;;;;;15.74;65.61;101897.00;15719006;28;20040;-48
2023/09/15 07:05:00;;;;;;;9.98;6.22;;;;;;;16.16;64.71;101897.38;15737704;28;20041;-49
2023/09/15 07:12:36;;;;;;;8.50;5.85;;;;;;;16.42;64.54;101890.94;15736096;28;20053;-50
2023/09/15 07:20:13;;;;;;;8.43;5.50;;;;;;;17.24;63.78;101879.94;15747785;28;20045;-50
2023/09/15 07:27:49;;;;;;;10.85;5.50;;;;;;;18.04;59.51;101879.75;15748209;28;20455;-47
2023/09/15 07:35:26;;;;;;;7.43;5.13;;;;;;;18.23;58.31;101885.94;15748241;28;20087;-48
2023/09/15 07:43:01;;;;;;;9.10;5.05;;;;;;;18.16;59.87;101880.59;15748479;28;20135;-47
2023/09/15 07:50:44;;;;;;;8.82;4.40;;;;;;;19.10;57.22;101883.38;15746786;28;20076;-52
2023/09/15 07:58:19;;;;;;;7.63;4.30;;;;;;;19.60;56.62;101886.38;15745460;28;20044;-50
2023/09/15 08:05:53;;;;;;;10.13;4.68;;;;;;;19.42;56.53;101883.78;15746402;28;20061;-47
2023/09/15 08:13:27;;;;;;;6.28;3.80;;;;;;;20.34;53.07;101885.53;15745915;28;20076;-47
2023/09/15 08:21:02;;;;;;;6.90;3.67;;;;;;;20.21;53.21;101885.84;15744718;28;20476;-47
2023/09/15 08:28:35;;;;;;;6.50;3.60;;;;;;;20.79;52.11;101879.97;15745307;28;20048;-49
2023/09/15 08:36:10;;;;;;;8.45;5.68;;;;;;;20.99;53.68;101867.72;15767095;23;20085;-49
2023/09/15 08:43:44;;;;;;;10.18;3.50;;;;;;;21.16;50.58;101863.00;15806732;28;20040;-50
2023/09/15 08:51:18;;;;;;;5.55;3.50;;;;;;;21.30;50.41;101853.34;15788238;28;20126;-47
2023/09/15 08:58:52;;;;;;;7.32;3.55;;;;;;;21.78;49.55;101859.94;15806070;28;20043;-51
2023/09/15 09:06:32;;;;;;;5.82;2.75;;;;;;;22.29;47.65;101852.22;15787053;28;20052;-50
2023/09/15 09:14:11;;;;;;;9.10;3.00;;;;;;;22.63;46.09;101850.00;15780750;28;20041;-47
2023/09/15 09:21:46;;;;;;;5.25;3.10;;;;;;;22.64;45.80;101856.28;15784992;28;20052;-49
2023/09/15 09:29:25;;;;;;;3.95;2.55;;;;;;;22.76;45.45;101845.97;15804253;28;20044;-51
2023/09/15 09:36:59;;;;;;;5.13;2.90;;;;;;;23.27;45.13;101837.16;15803395;28;20040;-49
2023/09/15 09:44:34;;;;;;;5.22;2.80;;;;;;;23.22;43.49;101832.50;15803413;28;20507;-51
2023/09/15 09:52:08;;;;;;;4.93;2.70;;;;;;;23.64;43.00;101832.41;15803058;28;20092;-51
2023/09/15 09:59:41;;;;;;;5.07;2.40;;;;;;;23.95;42.46;101828.84;15802126;28;20433;-54
2023/09/15 10:07:17;;;;;;;4.35;2.50;;;;;;;24.12;39.90;101812.97;15802057;28;20089;-51
2023/09/15 10:14:52;;;;;;;4.50;2.25;;;;;;;24.00;40.69;101809.66;15771288;28;20048;-52
2023/09/15 10:22:26;;;;;;;4.32;2.40;;;;;;;24.10;40.25;101801.41;15738834;28;20056;-47
2023/09/15 10:30:07;;;;;;;7.07;2.37;;;;;;;24.57;38.61;101786.56;15721885;28;20370;-50
2023/09/15 10:37:43;;;;;;;3.58;2.40;;;;;;;24.04;38.62;101780.59;15753133;28;20428;-52
2023/09/15 10:45:22;;;;;;;6.65;2.70;;;;;;;24.89;37.03;101777.94;15747771;28;20095;-50
2023/09/15 10:53:06;;;;;;;6.28;2.50;;;;;;;24.51;38.66;101765.72;15732883;28;20053;-52
2023/09/15 11:00:40;;;;;;;5.28;2.40;;;;;;;24.36;39.05;101766.56;15750663;28;20052;-52
2023/09/15 11:08:18;;;;;;;7.85;2.55;;;;;;;24.52;37.96;101745.41;15750136;28;20242;-50
2023/09/15 11:15:51;;;;;;;5.07;2.33;;;;;;;24.21;38.78;101756.44;15750296;28;20036;-51
2023/09/15 11:23:26;;;;;;;5.80;2.30;;;;;;;24.97;37.72;101738.09;15749596;28;20136;-50
2023/09/15 11:31:03;;;;;;;5.60;2.50;;;;;;;24.64;38.58;101740.44;15749393;28;20055;-49
2023/09/15 11:38:38;;;;;;;4.05;2.40;;;;;;;25.76;36.39;101733.47;15730989;28;20067;-53
2023/09/15 11:46:13;;;;;;;4.90;2.60;;;;;;;25.43;36.07;101724.91;15748320;28;20040;-52
2023/09/15 11:53:49;;;;;;;9.20;2.65;;;;;;;25.94;36.17;101722.56;15729304;28;20058;-50
2023/09/15 12:01:34;;;;;;;4.53;2.20;;;;;;;25.89;34.88;101706.13;15747402;28;20106;-51
2023/09/15 12:09:11;;;;;;;3.55;2.10;;;;;;;26.05;34.90;101701.28;15746232;28;20054;-49
2023/09/15 12:16:46;;;;;;;2.80;2.08;;;;;;;24.81;36.14;101712.63;15728159;28;20052;-46
2023/09/15 12:24:21;;;;;;;4.93;2.08;;;;;;;25.24;36.61;101701.97;15728284;28;20051;-47
2023/09/15 12:31:57;;;;;;;3.65;1.88;;;;;;;25.57;36.92;101686.59;15745405;28;20044;-50
2023/09/15 12:39:31;;;;;;;4.53;2.42;;;;;;;25.48;35.98;101672.63;15744931;28;20041;-52
2023/09/15 12:47:05;;;;;;;5.65;2.35;;;;;;;26.02;35.06;101654.25;15726743;28;20139;-49
2023/09/15 12:54:42;;;;;;;3.38;2.33;;;;;;;25.95;36.32;101665.63;15743542;28;20067;-50
2023/09/15 13:02:15;;;;;;;3.85;2.60;;;;;;;25.93;35.92;101656.84;15743276;28;20501;-48
2023/09/15 13:09:50;;;;;;;4.72;2.40;;;;;;;26.12;35.56;101649.47;15742207;28;20044;-51
2023/09/15 13:17:23;;;;;;;3.88;1.95;;;;;;;26.80;34.97;101639.25;15741540;28;20122;-48
2023/09/15 13:25:00;;;;;;;5.00;1.90;;;;;;;26.20;34.83;101636.97;15742319;28;20041;-50
2023/09/15 13:32:34;;;;;;;2.80;2.03;;;;;;;25.29;36.10;101616.72;15741102;28;20083;-48
2023/09/15 13:40:09;;;;;;;3.17;1.95;;;;;;;25.95;34.81;101610.59;15741133;28;20051;-50
2023/09/15 13:47:42;;;;;;;4.78;2.40;;;;;;;24.90;36.51;101599.16;15742190;28;20044;-51
2023/09/15 13:55:17;;;;;;;4.47;2.10;;;;;;;23.86;37.79;101593.59;15731825;28;20040;-51
2023/09/15 14:02:49;;;;;;;3.05;1.92;;;;;;;23.65;39.21;101601.03;15739175;28;20115;-51
2023/09/15 14:10:26;;;;;;;2.83;2.10;;;;;;;24.13;38.46;101590.47;15739910;28;20036;-52
2023/09/15 14:17:59;;;;;;;3.20;2.20;;;;;;;24.05;38.23;101592.97;15665283;28;20412;-51
2023/09/15 14:25:36;;;;;;;5.07;2.20;;;;;;;23.71;38.91;101596.38;15677310;28;20049;-49
2023/09/15 14:33:09;;;;;;;4.72;2.50;;;;;;;23.63;38.50;101594.97;15696320;28;20114;-46
2023/09/15 14:40:46;;;;;;;3.50;1.90;;;;;;;23.54;38.84;101573.88;15738887;28;20052;-45
2023/09/15 14:48:20;;;;;;;3.53;2.38;;;;;;;23.62;39.08;101560.44;15719725;28;20037;-46
2023/09/15 14:55:54;;;;;;;3.83;2.30;;;;;;;23.88;38.38;101554.94;15738372;28;20144;-46
2023/09/15 15:03:30;;;;;;;4.00;2.28;;;;;;;23.67;39.25;101556.91;15738496;28;20467;-47
2023/09/15 15:11:09;;;;;;;3.67;2.47;;;;;;;23.45;39.77;101565.41;15737066;28;20490;-45
2023/09/15 15:18:46;;;;;;;3.85;2.50;;;;;;;23.49;39.14;101555.53;15737119;28;20041;-46
2023/09/15 15:26:20;;;;;;;3.83;2.20;;;;;;;23.03;40.45;101563.78;15688582;28;20084;-47
2023/09/15 15:33:54;;;;;;;4.85;2.60;;;;;;;23.53;39.61;101556.63;15732977;28;20059;-47
2023/09/15 15:41:28;;;;;;;4.95;2.38;;;;;;;23.35;39.61;101555.28;15714290;28;20040;-49
2023/09/15 15:49:04;;;;;;;3.22;2.40;;;;;;;22.97;40.43;101547.66;15747822;28;20547;-47
2023/09/15 15:56:39;;;;;;;4.72;2.38;;;;;;;23.57;39.91;101535.78;15712717;28;20043;-46
2023/09/15 16:04:13;;;;;;;6.47;2.30;;;;;;;23.27;41.03;101536.69;15747303;28;20122;-51
2023/09/15 16:11:49;;;;;;;5.43;2.70;;;;;;;23.28;41.12;101534.75;15728500;28;20390;-49
2023/09/15 16:19:23;;;;;;;5.57;2.55;;;;;;;23.34;41.25;101536.38;15746385;28;20052;-47
2023/09/15 16:26:57;;;;;;;5.20;2.78;;;;;;;23.20;41.25;101533.41;15728581;28;20140;-49
2023/09/15 16:34:30;;;;;;;3.58;2.50;;;;;;;23.03;42.11;101539.16;15746332;28;20079;-49
2023/09/15 16:42:09;;;;;;;4.00;2.50;;;;;;;23.24;42.00;101536.41;15745082;28;20060;-51
2023/09/15 16:49:42;;;;;;;5.63;2.60;;;;;;;23.27;42.15;101538.56;15726959;28;20036;-47
2023/09/15 16:57:21;;;;;;;4.10;2.80;;;;;;;22.78;43.05;101528.16;15741746;28;20044;-49
2023/09/15 17:04:56;;;;;;;4.07;2.60;;;;;;;22.24;45.74;101534.91;15743678;28;20055;-48
2023/09/15 17:12:32;;;;;;;6.57;3.00;;;;;;;21.86;47.86;101547.84;15743073;28;20051;-47
2023/09/15 17:20:06;;;;;;;4.35;2.80;;;;;;;22.10;48.21;101555.59;15742624;28;20052;-46
2023/09/15 17:27:45;;;;;;;7.70;3.33;;;;;;;21.68;49.86;101551.03;15741772;28;20068;-46
2023/09/15 17:35:20;;;;;;;6.25;2.78;;;;;;;21.51;50.91;101558.59;15742335;28;20041;-51
2023/09/15 17:42:55;;;;;;;5.68;2.80;;;;;;;21.32;51.96;101559.00;15741615;28;20059;-48
2023/09/15 17:50:28;;;;;;;4.93;3.08;;;;;;;20.92;53.06;101555.91;15774140;28;20036;-48
2023/09/15 17:58:06;;;;;;;5.53;3.20;;;;;;;21.02;52.87;101562.28;15737171;28;20041;-51
2023/09/15 18:05:39;;;;;;;6.03;3.30;;;;;;;20.87;53.38;101562.97;15739169;28;20096;-49
2023/09/15 18:13:13;;;;;;;7.68;4.13;;;;;;;20.92;53.29;101572.28;15723435;28;20455;-48
2023/09/15 18:20:46;;;;;;;6.07;3.40;;;;;;;20.44;54.72;101573.97;15740249;28;20051;-45
2023/09/15 18:28:21;;;;;;;8.60;3.53;;;;;;;20.27;55.67;101568.56;15720772;28;20050;-46
2023/09/15 18:35:54;;;;;;;5.20;3.55;;;;;;;20.38;55.52;101573.91;15738718;28;20080;-50
2023/09/15 18:43:29;;;;;;;6.50;3.70;;;;;;;19.95;56.93;101572.00;15720690;28;20048;-46
2023/09/15 18:51:02;;;;;;;8.25;3.15;;;;;;;19.90;57.38;101569.19;15738214;28;20139;-45
2023/09/15 18:58:36;;;;;;;8.00;4.03;;;;;;;19.35;59.27;101564.56;15739440;28;20090;-47
2023/09/15 19:06:09;;;;;;;5.55;3.65;;;;;;;19.53;58.48;101568.91;15743735;28;20048;-52
2023/09/15 19:13:48;;;;;;;6.32;3.67;;;;;;;19.39;58.62;101560.25;15749870;28;20044;-50
2023/09/15 19:21:20;;;;;;;6.20;3.60;;;;;;;19.31;58.84;101561.53;15749443;28;20040;-48
2023/09/15 19:28:55;;;;;;;7.95;3.95;;;;;;;19.44;58.33;101559.53;15747816;28;20120;-48
2023/09/15 19:36:28;;;;;;;86.57;49.83;;;;;;;19.39;58.90;101568.44;15729394;28;20041;-48
2023/09/15 19:44:02;;;;;;;5.35;3.60;;;;;;;19.03;60.09;101567.06;15684731;28;20516;-52
2023/09/15 19:51:37;;;;;;;5.60;3.90;;;;;;;19.03;60.18;101553.44;15701386;28;20040;-48
2023/09/15 19:59:11;;;;;;;7.13;3.75;;;;;;;18.93;60.03;101555.97;15729093;28;20079;-47
2023/09/15 20:06:44;;;;;;;7.50;3.88;;;;;;;18.50;61.11;101554.63;15746686;28;20086;-50
2023/09/15 20:14:19;;;;;;;5.20;3.85;;;;;;;19.22;58.70;101551.31;15744961;28;20143;-48
2023/09/15 20:21:55;;;;;;;6.10;4.03;;;;;;;19.16;58.80;101544.94;15710064;28;20106;-46
2023/09/15 20:29:30;;;;;;;6.38;4.30;;;;;;;18.61;60.70;101562.75;15743882;28;20489;-48
2023/09/15 20:37:04;;;;;;;6.72;3.92;;;;;;;18.39;60.71;101567.22;15777952;22;20098;-45
2023/09/15 20:44:41;;;;;;;5.95;3.88;;;;;;;18.04;62.02;101570.03;15790168;28;20091;-47
2023/09/15 20:52:15;;;;;;;5.85;4.05;;;;;;;18.16;61.51;101570.81;15753880;28;20048;-46
2023/09/15 20:59:51;;;;;;;10.48;4.15;;;;;;;18.19;61.25;101569.53;15799857;28;20150;-47
2023/09/15 21:07:24;;;;;;;9.02;4.00;;;;;;;17.79;62.55;101564.88;15792552;28;20044;-47
2023/09/15 21:15:02;;;;;;;;;;;;;;;17.73;62.69;101563.94;15793333;28;20062;-44
2023/09/15 21:22:35;;;;;;;5.75;3.60;;;;;;;17.92;61.74;101558.38;15799654;28;19930;-48
2023/09/15 21:30:10;;;;;;;7.60;3.90;;;;;;;17.83;62.21;101552.47;15790332;28;20040;-47
2023/09/15 21:37:44;;;;;;;6.78;3.53;;;;;;;17.33;63.08;101559.19;15799380;28;20120;-47
2023/09/15 21:45:18;;;;;;;;;;;;;;;17.40;63.20;101564.50;15768420;28;20048;-50
2023/09/15 21:52:51;;;;;;;65.70;37.08;;;;;;;17.21;63.78;101563.78;15737407;28;19921;-50
2023/09/15 22:00:26;;;;;;;8.45;4.63;;;;;;;17.03;64.18;101558.47;15734953;28;20523;-49
2023/09/15 22:08:03;;;;;;;8.35;4.18;;;;;;;17.16;63.60;101550.09;15735039;28;20041;-49
2023/09/15 22:15:38;;;;;;;6.93;4.38;;;;;;;17.21;63.29;101552.94;15771103;28;20079;-47
2023/09/15 22:23:14;;;;;;;7.28;3.97;;;;;;;16.99;63.86;101552.66;15798069;28;20067;-51
2023/09/15 22:30:48;;;;;;;7.65;4.10;;;;;;;16.86;63.93;101546.63;15756217;28;20050;-51
2023/09/15 22:38:22;;;;;;;6.00;4.18;;;;;;;16.53;64.79;101540.59;15798496;28;20407;-53
2023/09/15 22:45:57;;;;;;;4.70;3.75;;;;;;;16.45;64.61;101537.38;15808446;28;20040;-51
2023/09/15 22:53:30;;;;;;;8.07;3.90;;;;;;;16.72;63.73;101538.69;15752665;28;20067;-53
2023/09/15 23:01:04;;;;;;;7.30;3.55;;;;;;;16.80;63.16;101538.34;15766494;28;20113;-49
2023/09/15 23:08:37;;;;;;;6.88;3.85;;;;;;;16.42;63.92;101533.25;15809440;28;20135;-48
2023/09/15 23:16:12;;;;;;;8.25;3.75;;;;;;;16.66;62.77;101527.91;15794321;28;20048;-47
2023/09/15 23:23:45;;;;;;;5.82;3.50;;;;;;;16.32;64.12;101525.69;15806821;28;20074;-45
2023/09/15 23:31:24;;;;;;;6.53;3.78;;;;;;;16.23;64.12;101527.06;15806883;28;20044;-50
2023/09/15 23:38:57;;;;;;;6.00;3.75;;;;;;;15.85;65.42;101524.56;15805879;28;20381;-52
2023/09/15 23:46:34;;;;;;;7.20;3.42;;;;;;;15.69;65.61;101517.06;15806181;28;20492;-52
2023/09/15 23:54:08;;;;;;;5.72;3.60;;;;;;;15.78;65.45;101521.97;15803913;28;20242;-49
